Time;durP1;ratioP1;P1;durP2;ratioP2;P2;SDS_P1;SDS_P2;PMS_P1;PMS_P2;Temp;Humidity;BMP_temperature;BMP_pressure;BME280_temperature;BME280_humidity;BME280_pressure;Samples;Min_cycle;Max_cycle;Signal;HPM_P1;HPM_P2
2021/04/23 00:02:39;;;;;;;8.68;4.75;;;;;;;10.31;100.00;94884.88;10370526;28;20030;-83
2021/04/23 00:07:40;;;;;;;5.70;4.47;;;;;;;10.33;100.00;94885.44;10370359;28;20090;-83
2021/04/23 00:12:41;;;;;;;9.38;5.35;;;;;;;10.06;100.00;94879.22;10369918;28;20029;-82
2021/04/23 00:17:41;;;;;;;10.35;4.72;;;;;;;10.09;100.00;94886.75;10369855;28;20085;-83
2021/04/23 00:22:42;;;;;;;12.95;5.25;;;;;;;10.14;100.00;94890.50;10352050;28;20022;-83
2021/04/23 00:27:42;;;;;;;8.40;5.22;;;;;;;10.17;100.00;94885.44;10370317;28;20061;-83
2021/04/23 00:32:52;;;;;;;9.03;5.27;;;;;;;10.21;100.00;94886.50;10369485;28;20397;-81
2021/04/23 00:37:54;;;;;;;8.45;5.55;;;;;;;10.20;100.00;94879.50;10360136;28;20304;-82
2021/04/23 00:42:56;;;;;;;10.10;4.93;;;;;;;10.24;100.00;94887.81;10378859;28;20058;-83
2021/04/23 00:48:00;;;;;;;8.23;5.03;;;;;;;10.19;100.00;94879.78;10389509;28;20037;-82
2021/04/23 00:53:01;;;;;;;12.30;5.55;;;;;;;10.19;100.00;94887.84;10415330;28;20420;-83
2021/04/23 00:58:03;;;;;;;7.47;5.15;;;;;;;10.13;100.00;94887.03;10417508;28;20065;-82
2021/04/23 01:03:04;;;;;;;6.72;4.70;;;;;;;10.08;100.00;94889.69;10410221;28;20120;-83
2021/04/23 01:08:05;;;;;;;7.20;5.45;;;;;;;10.06;100.00;94892.66;10409533;28;20371;-84
2021/04/23 01:13:05;;;;;;;8.75;5.72;;;;;;;9.96;100.00;94903.34;10397245;28;20094;-84
2021/04/23 01:18:06;;;;;;;11.93;6.20;;;;;;;9.74;100.00;94907.06;10417431;28;20112;-84
2021/04/23 01:23:06;;;;;;;8.40;6.50;;;;;;;9.71;100.00;94904.09;10416832;28;20460;-84
2021/04/23 01:28:07;;;;;;;10.53;7.33;;;;;;;9.61;100.00;94912.09;10415896;28;20306;-85
2021/04/23 01:33:07;;;;;;;9.37;5.40;;;;;;;9.64;100.00;94923.13;10413893;28;20302;-82
2021/04/23 01:38:08;;;;;;;11.77;6.93;;;;;;;9.43;100.00;94916.84;10410586;28;20292;-81
2021/04/23 01:43:09;;;;;;;10.18;7.38;;;;;;;9.44;100.00;94915.00;10409047;28;20433;-81
2021/04/23 01:48:10;;;;;;;11.18;7.53;;;;;;;9.54;100.00;94920.38;10411046;28;20395;-81
2021/04/23 01:53:10;;;;;;;16.73;6.90;;;;;;;9.52;100.00;94923.34;10411459;28;20035;-82
2021/04/23 01:58:12;;;;;;;13.88;7.68;;;;;;;9.46;100.00;94928.94;10409334;28;20037;-80
2021/04/23 02:03:13;;;;;;;11.23;6.38;;;;;;;9.32;100.00;94933.97;10410346;28;20032;-81
2021/04/23 02:08:16;;;;;;;12.27;7.93;;;;;;;9.19;100.00;94938.72;10371301;28;20021;-81
2021/04/23 02:13:21;;;;;;;11.68;7.53;;;;;;;9.09;100.00;94944.03;10368202;28;20034;-80
2021/04/23 02:18:23;;;;;;;14.68;7.97;;;;;;;8.99;100.00;94947.44;10367752;28;20030;-80
2021/04/23 02:23:24;;;;;;;11.27;7.28;;;;;;;9.02;100.00;94938.09;10370892;28;20061;-80
2021/04/23 02:28:25;;;;;;;13.18;7.90;;;;;;;8.98;100.00;94932.41;10370234;28;20495;-81
2021/04/23 02:33:27;;;;;;;13.63;7.97;;;;;;;8.97;100.00;94938.88;10370566;28;20461;-81
2021/04/23 02:38:28;;;;;;;13.57;8.25;;;;;;;9.09;100.00;94944.03;10369691;28;20033;-81
2021/04/23 02:43:32;;;;;;;10.40;8.20;;;;;;;9.07;100.00;94940.81;10370122;28;20082;-80
2021/04/23 02:48:37;;;;;;;12.13;8.73;;;;;;;9.15;100.00;94964.44;10370457;28;20120;-81
2021/04/23 02:53:37;;;;;;;17.58;10.15;;;;;;;9.16;100.00;94965.25;10369965;28;20465;-81
2021/04/23 02:58:39;;;;;;;15.30;10.00;;;;;;;9.21;100.00;94960.72;10369948;28;20034;-81
2021/04/23 03:03:40;;;;;;;16.05;10.65;;;;;;;9.26;100.00;94976.03;10371747;28;20767;-82
2021/04/23 03:08:40;;;;;;;18.15;12.32;;;;;;;9.32;100.00;94980.38;10377075;28;20160;-83
2021/04/23 03:13:44;;;;;;;21.45;12.10;;;;;;;9.25;100.00;94990.50;10353427;28;20030;-83
2021/04/23 03:18:45;;;;;;;18.30;13.50;;;;;;;9.35;100.00;94989.75;10353908;28;20029;-82
2021/04/23 03:23:46;;;;;;;20.33;12.63;;;;;;;9.33;100.00;94987.34;10371021;28;20505;-82
2021/04/23 03:28:47;;;;;;;18.83;12.02;;;;;;;9.23;100.00;94992.66;10371327;28;20105;-82
2021/04/23 03:33:48;;;;;;;15.77;11.43;;;;;;;9.15;100.00;95001.97;10371176;28;20041;-82
2021/04/23 03:38:50;;;;;;;13.57;10.55;;;;;;;9.19;100.00;94996.91;10370478;28;20470;-83
2021/04/23 03:43:52;;;;;;;18.00;11.20;;;;;;;9.26;100.00;95007.41;10370016;28;20408;-83
2021/04/23 03:48:55;;;;;;;17.77;11.50;;;;;;;9.17;100.00;95017.81;10368487;28;20026;-84
2021/04/23 03:53:55;;;;;;;13.95;10.10;;;;;;;9.16;100.00;95029.59;10361746;28;20034;-82
2021/04/23 03:58:56;;;;;;;20.77;12.57;;;;;;;9.16;100.00;95040.34;10365192;28;20034;-82
2021/04/23 04:03:56;;;;;;;17.27;11.00;;;;;;;9.11;100.00;95029.56;10362971;28;20030;-76
2021/04/23 04:08:57;;;;;;;22.00;12.10;;;;;;;9.03;100.00;95041.59;10367785;28;20079;-75
2021/04/23 04:13:57;;;;;;;14.17;9.77;;;;;;;9.04;100.00;95052.03;10367720;28;20041;-75
2021/04/23 04:18:57;;;;;;;17.10;11.18;;;;;;;9.03;100.00;95050.41;10359178;28;20042;-75
2021/04/23 04:23:58;;;;;;;17.17;12.27;;;;;;;8.95;100.00;95055.44;10387386;28;20096;-78
2021/04/23 04:28:59;;;;;;;19.75;13.45;;;;;;;8.89;100.00;95060.75;10378601;28;20033;-77
2021/04/23 04:33:59;;;;;;;19.33;13.50;;;;;;;8.78;100.00;95061.72;10434425;28;20036;-76
2021/04/23 04:39:00;;;;;;;17.55;13.18;;;;;;;8.91;100.00;95067.75;10410656;28;20109;-76
2021/04/23 04:44:00;;;;;;;21.08;14.02;;;;;;;8.99;100.00;95062.72;10403023;28;20081;-76
2021/04/23 04:49:01;;;;;;;26.02;17.63;;;;;;;8.92;100.00;95072.84;10402305;28;20821;-76
2021/04/23 04:54:01;;;;;;;30.87;20.40;;;;;;;8.98;100.00;95079.06;10402640;28;20103;-77
2021/04/23 04:59:03;;;;;;;28.92;19.08;;;;;;;8.93;100.00;95085.19;10405472;28;20306;-77
2021/04/23 05:04:04;;;;;;;19.45;14.48;;;;;;;9.02;100.00;95086.31;10405397;28;20080;-77
2021/04/23 05:09:05;;;;;;;24.10;15.90;;;;;;;8.98;100.00;95087.09;10375442;28;20033;-76
2021/04/23 05:14:05;;;;;;;20.58;14.35;;;;;;;8.90;100.00;95091.03;10364729;28;20033;-75
2021/04/23 05:19:06;;;;;;;13.00;10.43;;;;;;;8.79;100.00;95095.50;10386864;28;20033;-76
2021/04/23 05:24:06;;;;;;;16.63;11.35;;;;;;;8.71;100.00;95102.13;10403386;28;20461;-75
2021/04/23 05:29:07;;;;;;;14.52;11.32;;;;;;;8.78;100.00;95109.16;10388743;28;20030;-76
2021/04/23 05:34:07;;;;;;;15.73;11.82;;;;;;;8.72;100.00;95110.94;10364061;28;20030;-75
2021/04/23 05:39:08;;;;;;;19.93;12.17;;;;;;;8.51;100.00;95115.28;10395171;28;20037;-75
2021/04/23 05:44:08;;;;;;;21.40;12.80;;;;;;;8.66;100.00;95122.69;10404293;28;20104;-75
2021/04/23 05:49:11;;;;;;;16.13;11.50;;;;;;;8.67;100.00;95127.00;10403661;28;20302;-75
2021/04/23 05:54:12;;;;;;;17.48;12.10;;;;;;;8.56;100.00;95136.78;10402470;28;20040;-76
2021/04/23 05:59:12;;;;;;;15.37;11.27;;;;;;;8.63;100.00;95131.25;10402251;28;20072;-75
2021/04/23 06:04:13;;;;;;;14.27;10.90;;;;;;;8.62;100.00;95135.75;10403333;28;20270;-76
2021/04/23 06:09:13;;;;;;;14.07;10.90;;;;;;;8.57;100.00;95146.44;10402306;28;20052;-75
2021/04/23 06:14:14;;;;;;;18.10;11.73;;;;;;;8.80;100.00;95144.53;10403205;28;20452;-76
2021/04/23 06:19:14;;;;;;;14.85;11.35;;;;;;;9.30;100.00;95148.78;10403218;28;20428;-76
2021/04/23 06:24:14;;;;;;;15.50;10.17;;;;;;;9.41;100.00;95145.13;10402386;28;20040;-76
2021/04/23 06:29:15;;;;;;;21.80;11.52;;;;;;;9.77;100.00;95144.63;10402591;28;20026;-75
2021/04/23 06:34:15;;;;;;;16.40;10.23;;;;;;;9.83;100.00;95134.72;10401199;28;20031;-75
2021/04/23 06:39:18;;;;;;;15.63;10.00;;;;;;;9.89;100.00;95133.69;10361202;28;20026;-77
2021/04/23 06:44:19;;;;;;;15.27;10.77;;;;;;;9.94;100.00;95127.56;10359871;28;20450;-74
2021/04/23 06:49:20;;;;;;;18.33;10.23;;;;;;;9.99;100.00;95124.88;10360024;28;20550;-77
2021/04/23 06:54:20;;;;;;;17.23;11.05;;;;;;;9.96;100.00;95128.88;10360898;28;20033;-76
2021/04/23 06:59:20;;;;;;;21.63;12.40;;;;;;;10.01;100.00;95126.25;10361088;28;20030;-76
2021/04/23 07:04:21;;;;;;;17.63;11.57;;;;;;;10.20;100.00;95134.69;10360962;28;20273;-76
2021/04/23 07:09:21;;;;;;;23.93;9.27;;;;;;;10.46;100.00;95134.81;10360809;28;20026;-76
2021/04/23 07:14:22;;;;;;;15.68;10.38;;;;;;;10.74;100.00;95130.91;10358973;28;20029;-76
2021/04/23 07:19:23;;;;;;;16.13;9.07;;;;;;;10.80;100.00;95141.66;10361132;28;20034;-76
2021/04/23 07:24:24;;;;;;;15.80;9.35;;;;;;;10.88;100.00;95131.19;10360920;28;20084;-76
2021/04/23 07:29:25;;;;;;;17.67;10.43;;;;;;;10.87;100.00;95136.84;10360622;28;20037;-76
2021/04/23 07:34:25;;;;;;;15.03;8.53;;;;;;;10.57;100.00;95141.06;10360350;28;20037;-76
2021/04/23 07:39:28;;;;;;;27.20;10.60;;;;;;;10.65;100.00;95147.81;10360489;28;20514;-76
2021/04/23 07:44:29;;;;;;;15.23;8.80;;;;;;;10.53;100.00;95154.19;10359810;28;20092;-76
2021/04/23 07:49:30;;;;;;;16.73;9.18;;;;;;;10.59;100.00;95157.72;10359967;28;20052;-76
2021/04/23 07:54:31;;;;;;;16.00;7.38;;;;;;;10.55;100.00;95151.28;10360036;28;20048;-76
2021/04/23 07:59:31;;;;;;;17.05;8.20;;;;;;;10.78;100.00;95152.69;10358692;28;20030;-76
2021/04/23 08:04:34;;;;;;;10.83;5.80;;;;;;;10.81;100.00;95149.47;10359726;28;20034;-76
2021/04/23 08:09:36;;;;;;;10.10;6.30;;;;;;;10.85;100.00;95139.78;10359496;28;20034;-77
2021/04/23 08:14:36;;;;;;;4.22;3.40;;;;;;;10.56;100.00;95140.25;10359762;28;20029;-77
2021/04/23 08:19:37;;;;;;;6.72;2.92;;;;;;;10.55;100.00;95135.16;10358208;28;20041;-77
2021/04/23 08:24:37;;;;;;;5.43;3.17;;;;;;;10.13;100.00;95144.03;10359536;28;20493;-76
2021/04/23 08:29:37;;;;;;;5.53;4.10;;;;;;;9.98;100.00;95160.88;10358872;28;20342;-77
2021/04/23 08:34:38;;;;;;;8.10;5.33;;;;;;;10.50;100.00;95156.63;10359385;28;20056;-76
2021/04/23 08:39:39;;;;;;;6.80;3.90;;;;;;;10.91;100.00;95152.19;10359385;28;20038;-76
2021/04/23 08:44:39;;;;;;;17.73;13.18;;;;;;;10.87;100.00;95153.78;10358346;28;20703;-77
2021/04/23 08:49:41;;;;;;;9.03;7.07;;;;;;;11.02;100.00;95153.00;10359261;28;20033;-77
2021/04/23 08:54:43;;;;;;;16.98;8.57;;;;;;;11.10;100.00;95162.47;10358831;28;20308;-77
2021/04/23 08:59:43;;;;;;;9.45;6.50;;;;;;;11.07;100.00;95152.22;10356691;28;20029;-76
2021/04/23 09:04:44;;;;;;;8.07;5.03;;;;;;;11.17;100.00;95143.38;10358448;28;20416;-76
2021/04/23 09:09:44;;;;;;;6.05;4.53;;;;;;;10.99;100.00;95137.41;10359106;28;20112;-76
2021/04/23 09:14:46;;;;;;;4.55;3.47;;;;;;;10.91;100.00;95148.69;10360642;28;20021;-77
2021/04/23 09:19:48;;;;;;;5.38;3.20;;;;;;;10.85;100.00;95157.81;10362721;28;20099;-77
2021/04/23 09:25:03;;;;;;;6.95;4.30;;;;;;;10.92;100.00;95147.63;10344548;28;20030;-77
2021/04/23 09:30:07;;;;;;;9.30;4.38;;;;;;;11.17;100.00;95148.75;10362131;28;20456;-77
2021/04/23 09:35:17;;;;;;;4.00;3.15;;;;;;;10.52;100.00;95143.72;10361975;28;20568;-76
2021/04/23 09:40:31;;;;;;;5.55;3.42;;;;;;;10.61;100.00;95142.16;10361316;28;20053;-76
2021/04/23 09:45:35;;;;;;;4.72;3.85;;;;;;;10.56;100.00;95148.31;10360748;28;20050;-77
2021/04/23 09:50:38;;;;;;;4.95;3.17;;;;;;;10.49;100.00;95153.09;10361654;28;20500;-77
2021/04/23 09:55:39;;;;;;;5.00;3.33;;;;;;;10.51;100.00;95152.88;10361091;28;20052;-77
2021/04/23 10:00:44;;;;;;;4.93;3.00;;;;;;;10.47;100.00;95159.81;10361375;28;20045;-78
2021/04/23 10:05:44;;;;;;;4.55;3.63;;;;;;;10.26;100.00;95146.25;10361814;28;20877;-76
2021/04/23 10:10:53;;;;;;;4.57;3.60;;;;;;;10.29;100.00;95147.63;10359690;28;20030;-76
2021/04/23 10:15:53;;;;;;;6.18;4.05;;;;;;;10.23;100.00;95149.47;10342828;28;20479;-76
2021/04/23 10:20:57;;;;;;;10.20;5.53;;;;;;;10.35;100.00;95147.38;10359567;28;20045;-77
2021/04/23 10:25:59;;;;;;;8.18;4.50;;;;;;;10.33;100.00;95154.09;10359454;28;20033;-75
2021/04/23 10:30:59;;;;;;;8.23;4.47;;;;;;;10.64;100.00;95152.38;10359516;28;20029;-77
2021/04/23 10:36:00;;;;;;;6.13;4.03;;;;;;;10.86;100.00;95140.63;10359311;28;20076;-77
2021/04/23 10:41:07;;;;;;;5.20;4.22;;;;;;;10.82;100.00;95153.78;10358939;28;20030;-76
2021/04/23 10:46:15;;;;;;;6.22;4.28;;;;;;;11.19;100.00;95141.22;10358491;28;20054;-77
2021/04/23 10:51:18;;;;;;;12.80;7.05;;;;;;;11.28;100.00;95147.69;10358401;28;20064;-76
2021/04/23 10:56:28;;;;;;;10.77;5.47;;;;;;;11.97;100.00;95142.88;10358723;28;20044;-77
2021/04/23 11:01:35;;;;;;;7.05;5.15;;;;;;;12.59;100.00;95138.13;10357716;28;20096;-78
2021/04/23 11:07:01;;;;;;;67.05;13.05;;;;;;;13.06;100.00;95137.91;10359030;28;20030;-77
2021/04/23 11:12:08;;;;;;;37.05;7.55;;;;;;;13.21;100.00;95135.09;10340771;28;20080;-77
2021/04/23 11:17:14;;;;;;;16.52;6.63;;;;;;;13.97;100.00;95122.13;10341294;28;20517;-77
2021/04/23 11:22:23;;;;;;;10.07;3.63;;;;;;;14.27;100.00;95119.41;10358523;28;20141;-77
2021/04/23 11:27:23;;;;;;;3.28;2.67;;;;;;;14.27;100.00;95122.09;10357287;28;20029;-77
2021/04/23 11:32:25;;;;;;;3.27;2.97;;;;;;;13.25;100.00;95119.19;10356304;28;20026;-77
2021/04/23 11:37:51;;;;;;;2.90;2.58;;;;;;;13.14;100.00;95118.44;10356560;28;20753;-77
2021/04/23 11:42:54;;;;;;;5.60;2.75;;;;;;;14.22;100.00;95095.94;10356944;28;20049;-76
2021/04/23 11:47:58;;;;;;;3.70;2.28;;;;;;;14.30;100.00;95103.44;10356952;28;20030;-76
2021/04/23 11:53:10;;;;;;;21.08;5.43;;;;;;;14.46;100.00;95104.03;10395167;28;20045;-76
2021/04/23 11:58:13;;;;;;;42.58;8.50;;;;;;;14.89;100.00;95095.16;10396962;28;20059;-76
2021/04/23 12:03:16;;;;;;;20.42;6.10;;;;;;;15.61;100.00;95096.78;10397469;28;20033;-76
2021/04/23 12:08:26;;;;;;;68.07;13.00;;;;;;;15.21;98.19;95089.00;10396595;28;20029;-76
2021/04/23 12:13:27;;;;;;;48.63;12.82;;;;;;;14.99;100.00;95081.47;10397582;28;20033;-77
2021/04/23 12:18:29;;;;;;;182.38;35.58;;;;;;;14.99;100.00;95086.88;10397131;28;20136;-76
2021/04/23 12:23:32;;;;;;;171.10;28.60;;;;;;;15.51;100.00;95100.47;10397524;28;20029;-77
2021/04/23 12:28:33;;;;;;;29.15;7.70;;;;;;;15.66;100.00;95096.72;10397569;28;20176;-77
2021/04/23 12:33:45;;;;;;;27.02;6.10;;;;;;;15.66;100.00;95088.59;10378183;28;20033;-77
2021/04/23 12:38:53;;;;;;;5.43;4.03;;;;;;;15.47;100.00;95096.72;10396326;28;20475;-77
2021/04/23 12:43:55;;;;;;;7.13;4.70;;;;;;;15.16;100.00;95083.66;10396637;28;20140;-77
2021/04/23 12:49:06;;;;;;;28.05;8.98;;;;;;;15.19;100.00;95079.56;10401625;28;20103;-77
2021/04/23 12:54:07;;;;;;;29.67;8.90;;;;;;;15.17;99.99;95089.91;10404466;28;20044;-77
2021/04/23 12:59:28;;;;;;;26.77;9.35;;;;;;;15.43;98.03;95098.41;10403907;28;20403;-77
2021/04/23 13:04:28;;;;;;;15.38;7.70;;;;;;;15.24;96.10;95090.34;10404041;28;20040;-77
2021/04/23 13:09:31;;;;;;;14.55;7.22;;;;;;;14.90;100.00;95093.25;10404040;28;20529;-77
2021/04/23 13:14:38;;;;;;;8.27;5.63;;;;;;;14.89;98.88;95076.22;10403441;28;20029;-77
2021/04/23 13:19:42;;;;;;;9.88;6.65;;;;;;;14.14;100.00;95080.34;10403259;28;20037;-77
2021/04/23 13:24:42;;;;;;;9.80;6.75;;;;;;;13.90;100.00;95099.22;10403500;28;20404;-77
2021/04/23 13:29:43;;;;;;;12.50;7.72;;;;;;;13.57;100.00;95086.28;10403320;28;20022;-77
2021/04/23 13:34:57;;;;;;;16.23;10.90;;;;;;;13.45;100.00;95092.06;10403302;28;20120;-77
2021/04/23 13:40:04;;;;;;;16.20;10.27;;;;;;;13.45;100.00;95094.75;10402205;28;20030;-76
2021/04/23 13:45:13;;;;;;;23.13;13.35;;;;;;;13.55;100.00;95098.44;10401950;28;20496;-76
2021/04/23 13:50:16;;;;;;;;;;;;;;;14.06;100.00;95105.28;10401969;28;20029;-76
2021/04/23 13:55:16;;;;;;;22.27;14.68;;;;;;;14.58;100.00;95097.41;10383931;28;19949;-76
2021/04/23 14:00:17;;;;;;;23.15;14.38;;;;;;;14.81;94.23;95102.00;10400469;28;20046;-77
2021/04/23 14:05:17;;;;;;;21.60;14.48;;;;;;;14.59;98.16;95107.16;10400710;28;20108;-77
2021/04/23 14:10:19;;;;;;;24.87;15.00;;;;;;;14.62;99.18;95099.28;10383464;28;20052;-77
2021/04/23 14:15:19;;;;;;;26.10;15.73;;;;;;;14.87;97.69;95100.03;10382740;28;20038;-77
2021/04/23 14:20:19;;;;;;;20.67;13.77;;;;;;;14.73;99.87;95096.47;10397683;28;20029;-77
2021/04/23 14:25:20;;;;;;;19.03;12.87;;;;;;;14.67;92.77;95101.13;10359655;28;20037;-77
2021/04/23 14:30:21;;;;;;;21.52;14.27;;;;;;;14.58;93.33;95097.41;10348940;28;20034;-77
2021/04/23 14:35:21;;;;;;;24.25;14.77;;;;;;;14.28;88.38;95112.91;10396032;28;20029;-77
2021/04/23 14:40:22;;;;;;;28.17;17.17;;;;;;;14.01;94.42;95106.16;10400176;28;20033;-77
2021/04/23 14:45:22;;;;;;;24.00;16.33;;;;;;;13.70;97.37;95101.03;10403460;28;20429;-77
2021/04/23 14:50:23;;;;;;;19.70;14.40;;;;;;;13.66;88.80;95125.09;10392515;28;20480;-78
2021/04/23 14:55:24;;;;;;;21.40;14.68;;;;;;;13.54;97.05;95105.75;10417166;28;20287;-78
2021/04/23 15:00:25;;;;;;;23.58;16.02;;;;;;;13.22;97.57;95119.75;10399177;28;20129;-77
2021/04/23 15:05:26;;;;;;;31.35;19.75;;;;;;;13.18;100.00;95121.38;10390740;28;20034;-76
2021/04/23 15:10:27;;;;;;;25.92;17.13;;;;;;;12.80;100.00;95124.56;10357656;28;20049;-77
2021/04/23 15:15:27;;;;;;;26.08;17.77;;;;;;;12.60;100.00;95111.97;10358051;28;20033;-76
2021/04/23 15:20:28;;;;;;;26.23;17.52;;;;;;;12.58;100.00;95108.75;10357305;28;20303;-76
2021/04/23 15:25:29;;;;;;;21.60;16.38;;;;;;;12.70;100.00;95111.94;10356982;28;20033;-76
2021/04/23 15:30:29;;;;;;;21.08;16.67;;;;;;;12.63;100.00;95108.72;10357299;28;20036;-76
2021/04/23 15:35:30;;;;;;;21.60;16.20;;;;;;;12.61;100.00;95098.22;10356997;28;20061;-76
2021/04/23 15:40:30;;;;;;;22.23;16.07;;;;;;;12.68;100.00;95095.22;10339156;28;20026;-76
2021/04/23 15:45:34;;;;;;;24.63;17.90;;;;;;;12.85;100.00;95085.97;10356049;28;20297;-77
2021/04/23 15:50:39;;;;;;;22.52;17.08;;;;;;;12.97;100.00;95081.81;10356696;28;20519;-77
2021/04/23 15:55:39;;;;;;;23.27;17.40;;;;;;;12.97;100.00;95089.13;10356368;28;20128;-76
2021/04/23 16:00:41;;;;;;;24.00;17.80;;;;;;;13.11;100.00;95092.81;10357167;28;20076;-76
2021/04/23 16:05:42;;;;;;;26.13;18.00;;;;;;;12.90;96.46;95088.63;10356739;28;20105;-76
2021/04/23 16:10:43;;;;;;;24.77;17.95;;;;;;;12.77;100.00;95087.38;10356825;28;20489;-76
2021/04/23 16:15:43;;;;;;;29.65;16.60;;;;;;;12.61;100.00;95087.44;10356969;28;20132;-76
2021/04/23 16:20:44;;;;;;;21.43;14.30;;;;;;;12.69;100.00;95090.63;10357457;28;20469;-77
2021/04/23 16:25:44;;;;;;;22.63;16.20;;;;;;;12.29;100.00;95098.59;10365197;28;20030;-77
2021/04/23 16:30:45;;;;;;;23.10;16.25;;;;;;;12.40;100.00;95096.69;10381508;28;20359;-76
2021/04/23 16:35:45;;;;;;;21.77;16.02;;;;;;;12.39;100.00;95095.91;10423915;28;20037;-76
2021/04/23 16:40:46;;;;;;;22.67;15.83;;;;;;;12.39;100.00;95089.69;10435481;28;20075;-78
2021/04/23 16:45:46;;;;;;;22.67;16.17;;;;;;;12.26;100.00;95096.47;10443514;28;20291;-76
2021/04/23 16:50:47;;;;;;;25.35;14.68;;;;;;;12.18;98.23;95103.25;10425932;28;20082;-76
2021/04/23 16:55:47;;;;;;;19.88;12.25;;;;;;;12.04;96.90;95112.97;10399343;28;20032;-77
2021/04/23 17:00:48;;;;;;;25.83;14.53;;;;;;;11.91;97.92;95112.41;10349054;28;20033;-76
2021/04/23 17:05:48;;;;;;;21.20;13.07;;;;;;;11.69;99.67;95131.53;10365717;28;21081;-77
2021/04/23 17:10:49;;;;;;;25.20;14.70;;;;;;;11.63;100.00;95135.34;10397795;28;20017;-76
2021/04/23 17:15:49;;;;;;;19.13;13.57;;;;;;;11.38;100.00;95136.13;10422166;28;20313;-76
2021/04/23 17:20:49;;;;;;;19.80;13.77;;;;;;;11.10;100.00;95139.03;10423178;28;20029;-76
2021/04/23 17:25:50;;;;;;;20.60;14.40;;;;;;;10.77;100.00;95148.38;10412374;28;20025;-76
2021/04/23 17:30:50;;;;;;;21.10;14.07;;;;;;;10.61;100.00;95147.53;10408701;28;20109;-76
2021/04/23 17:35:51;;;;;;;24.08;14.93;;;;;;;10.41;100.00;95159.78;10403223;28;20061;-76
2021/04/23 17:40:51;;;;;;;23.83;13.87;;;;;;;10.36;100.00;95167.81;10405490;28;20385;-77
2021/04/23 17:45:52;;;;;;;23.70;12.97;;;;;;;10.19;100.00;95189.47;10397065;28;20341;-77
2021/04/23 17:50:52;;;;;;;28.15;14.68;;;;;;;10.19;100.00;95202.09;10393876;28;20025;-76
2021/04/23 17:55:53;;;;;;;23.52;14.65;;;;;;;10.20;100.00;95207.19;10388580;28;20037;-76
2021/04/23 18:00:53;;;;;;;23.53;12.57;;;;;;;10.19;100.00;95226.28;10383451;28;20064;-77
2021/04/23 18:05:53;;;;;;;20.57;11.83;;;;;;;10.17;100.00;95220.31;10383636;28;20036;-76
2021/04/23 18:10:54;;;;;;;22.17;11.60;;;;;;;10.06;100.00;95219.44;10363312;28;20037;-76
2021/04/23 18:15:54;;;;;;;26.05;12.07;;;;;;;10.23;100.00;95222.00;10382540;28;20280;-76
2021/04/23 18:20:55;;;;;;;17.60;10.65;;;;;;;10.21;100.00;95234.84;10380289;28;20550;-76
2021/04/23 18:25:55;;;;;;;33.67;14.10;;;;;;;10.24;100.00;95239.72;10392549;28;20474;-75
2021/04/23 18:30:56;;;;;;;20.97;9.67;;;;;;;10.15;100.00;95243.97;10364804;28;20026;-76
2021/04/23 18:35:57;;;;;;;13.68;8.63;;;;;;;9.97;100.00;95256.72;10360221;28;20053;-78
2021/04/23 18:40:57;;;;;;;15.13;9.02;;;;;;;9.87;100.00;95264.69;10371374;28;20144;-76
2021/04/23 18:45:58;;;;;;;18.15;9.85;;;;;;;10.00;100.00;95274.97;10386442;28;20091;-77
2021/04/23 18:50:59;;;;;;;12.90;8.40;;;;;;;10.03;100.00;95273.66;10390300;28;20029;-81
2021/04/23 18:55:59;;;;;;;23.42;8.75;;;;;;;9.85;100.00;95277.53;10412953;28;20108;-83
2021/04/23 19:01:01;;;;;;;12.37;8.20;;;;;;;9.73;100.00;95289.25;10412197;28;20108;-82
2021/04/23 19:06:02;;;;;;;17.50;9.82;;;;;;;9.94;100.00;95283.28;10411512;28;20035;-82
2021/04/23 19:11:02;;;;;;;21.80;10.05;;;;;;;10.01;100.00;95290.03;10410838;28;20026;-82
2021/04/23 19:16:03;;;;;;;20.58;10.63;;;;;;;10.07;100.00;95302.47;10418424;28;20032;-83
2021/04/23 19:21:04;;;;;;;16.38;9.50;;;;;;;9.70;100.00;95291.66;10373359;28;20549;-82
2021/04/23 19:26:06;;;;;;;23.77;9.43;;;;;;;9.61;100.00;95288.59;10452119;28;20056;-81
2021/04/23 19:31:07;;;;;;;24.35;10.43;;;;;;;9.56;100.00;95291.25;10452628;28;20079;-81
2021/04/23 19:36:07;;;;;;;17.47;9.37;;;;;;;9.58;100.00;95275.69;10431368;28;20055;-81
2021/04/23 19:41:08;;;;;;;22.75;11.02;;;;;;;9.33;100.00;95277.03;10433128;28;20052;-81
2021/04/23 19:46:08;;;;;;;21.52;9.20;;;;;;;9.27;100.00;95278.03;10425676;28;20060;-82
2021/04/23 19:51:10;;;;;;;16.73;8.02;;;;;;;9.14;100.00;95270.38;10410524;28;20021;-83
2021/04/23 19:56:10;;;;;;;12.98;7.70;;;;;;;9.17;100.00;95277.94;10415180;28;20032;-82
2021/04/23 20:01:11;;;;;;;14.43;8.53;;;;;;;9.19;100.00;95286.53;10451679;28;20021;-82
2021/04/23 20:06:11;;;;;;;15.02;8.40;;;;;;;9.09;99.92;95294.47;10428111;28;20064;-83
2021/04/23 20:11:12;;;;;;;15.18;8.38;;;;;;;9.05;99.02;95294.13;10368194;28;20056;-83
2021/04/23 20:16:12;;;;;;;13.97;7.73;;;;;;;8.97;100.00;95297.25;10402744;28;20036;-83
2021/04/23 20:21:13;;;;;;;12.83;8.17;;;;;;;8.94;97.29;95306.59;10402502;28;20036;-83
2021/04/23 20:26:13;;;;;;;14.32;7.72;;;;;;;8.86;93.94;95309.72;10412971;28;20070;-83
2021/04/23 20:31:13;;;;;;;17.38;8.13;;;;;;;8.88;95.63;95300.38;10450963;28;20017;-82
2021/04/23 20:36:15;;;;;;;13.87;7.70;;;;;;;8.89;93.17;95301.19;10451629;28;20108;-82
2021/04/23 20:41:15;;;;;;;13.73;8.30;;;;;;;8.85;94.24;95295.50;10386498;28;20072;-82
2021/04/23 20:46:16;;;;;;;14.30;8.05;;;;;;;8.82;95.19;95303.22;10421938;28;20085;-81
2021/04/23 20:51:16;;;;;;;11.00;8.40;;;;;;;8.84;90.83;95295.75;10409339;28;20087;-81
2021/04/23 20:56:17;;;;;;;10.90;7.82;;;;;;;8.84;90.19;95309.97;10409081;28;20423;-82
2021/04/23 21:01:17;;;;;;;15.87;8.33;;;;;;;8.83;89.77;95310.22;10408745;28;20033;-81
2021/04/23 21:06:17;;;;;;;12.87;7.53;;;;;;;8.87;87.66;95314.03;10407945;28;20272;-81
2021/04/23 21:11:18;;;;;;;10.85;6.90;;;;;;;8.79;88.62;95325.16;10416093;28;20762;-81
2021/04/23 21:16:18;;;;;;;12.27;7.10;;;;;;;8.72;85.60;95328.00;10416339;28;20117;-81
2021/04/23 21:21:18;;;;;;;11.07;6.20;;;;;;;8.72;86.43;95334.19;10402074;28;20034;-82
2021/04/23 21:26:19;;;;;;;11.27;6.53;;;;;;;8.62;87.31;95328.69;10376415;28;20026;-82
2021/04/23 21:31:19;;;;;;;13.65;6.85;;;;;;;8.55;88.04;95323.50;10376212;28;20026;-82
2021/04/23 21:36:20;;;;;;;15.47;7.53;;;;;;;8.55;88.64;95328.88;10376009;28;20037;-82
2021/04/23 21:41:20;;;;;;;12.98;8.15;;;;;;;8.63;93.36;95322.25;10375567;28;20114;-82
2021/04/23 21:46:20;;;;;;;14.77;7.43;;;;;;;8.63;86.56;95316.91;10398939;28;20045;-81
2021/04/23 21:51:21;;;;;;;13.85;7.18;;;;;;;8.50;86.46;95314.59;10415760;28;20136;-80
2021/04/23 21:56:22;;;;;;;13.55;7.32;;;;;;;8.52;90.25;95318.63;10414422;28;20067;-82
2021/04/23 22:01:23;;;;;;;14.63;6.63;;;;;;;8.43;82.06;95317.41;10406837;28;20033;-82
2021/04/23 22:06:23;;;;;;;16.00;6.88;;;;;;;8.42;83.88;95323.81;10406797;28;20555;-84
2021/04/23 22:11:25;;;;;;;15.67;6.57;;;;;;;8.28;83.69;95331.34;10403184;28;20083;-84
2021/04/23 22:16:26;;;;;;;21.98;6.40;;;;;;;8.18;84.60;95331.22;10408344;28;20048;-85
2021/04/23 22:21:28;;;;;;;17.02;6.47;;;;;;;8.14;85.17;95330.06;10412248;28;20104;-84
2021/04/23 22:26:28;;;;;;;15.75;6.97;;;;;;;8.09;87.17;95328.09;10396600;28;20014;-84
2021/04/23 22:31:28;;;;;;;13.83;6.67;;;;;;;8.07;86.49;95326.75;10410847;28;20014;-84
2021/04/23 22:36:29;;;;;;;11.83;6.47;;;;;;;8.14;90.32;95320.16;10371909;28;20048;-84
2021/04/23 22:41:29;;;;;;;16.45;6.95;;;;;;;8.22;92.29;95321.63;10371600;28;20281;-84
2021/04/23 22:46:30;;;;;;;16.10;7.37;;;;;;;8.25;92.39;95310.44;10372962;28;20560;-84
2021/04/23 22:51:30;;;;;;;15.25;7.85;;;;;;;8.10;89.21;95311.00;10373117;28;20272;-84
2021/04/23 22:56:31;;;;;;;14.40;7.18;;;;;;;7.93;87.66;95300.28;10363393;28;20073;-84